hintergrundbild

 METAR AND TAF INFORMATION
METAR FOR LDSP
ADDS - METARS form results

(1029 UTC 18 August 2019)
Data provider http://aviationweather.gov/metar/data/
 
METAR text: LDSP 181000Z 12005KT 080V170 CAVOK 30/11 Q1016 BECMG TL1130 23010KT
Conditions at: LDSP (SPLIT/KASTEL STA, HR) observed 1000 UTC 18 August 2019
Temperature: 30.0°C (86°F)
Dewpoint: 11.0°C (52°F) [RH = 31%]
Pressure (altimeter): 30.00 inches Hg (1016.0 mb)
Winds: from the ESE (120 degrees) at 6 MPH (5 knots; 2.6 m/s)
Visibility: 6 or more miles (10+ km)
Ceiling: ceiling and visibility are OK
Clouds: unknown
Weather: no significant weather observed at this time

METAR text: LDSP 180930Z 13005KT 100V160 CAVOK 29/11 Q1016 NOSIG
Conditions at: LDSP (SPLIT/KASTEL STA, HR) observed 0930 UTC 18 August 2019
Temperature: 29.0°C (84°F)
Dewpoint: 11.0°C (52°F) [RH = 33%]
Pressure (altimeter): 30.00 inches Hg (1016.0 mb)
Winds: from the SE (130 degrees) at 6 MPH (5 knots; 2.6 m/s)
Visibility: 6 or more miles (10+ km)
Ceiling: ceiling and visibility are OK
Clouds: unknown
Weather: no significant weather observed at this time

Forecast for: LDSP (SPLIT/KASTEL STA, HR)
Text: TAF LDSP 180525Z 1806/1906 11004KT CAVOK TX30/1814Z TN21/1904Z
Forecast period: 0600 to 1000 UTC 18 August 2019
Forecast type: FROM: standard forecast or significant change
Winds: from the ESE (110 degrees) at 5 MPH (4 knots; 2.1 m/s)
Visibility: 6 or more miles 10+ km)
Ceiling: unknown
Clouds: missing
Weather: no significant weather forecast for this period
Text: BECMG 1810/1812 23010KT
Forecast period: 1000 to 1500 UTC 18 August 2019
Forecast type: BECOMING: Conditions expected to become as follows by 1200 UTC 18 August 2019
Winds: from the SW (230 degrees) at 12 MPH (10 knots; 5.1 m/s)
Visibility: 6 or more miles 10+ km)
Ceiling: unknown
Clouds: missing
Weather: no significant weather forecast for this period
Text: BECMG 1815/1817 24005KT
Forecast period: 1500 UTC 18 August 2019 to 0600 UTC 19 August 2019
Forecast type: BECOMING: Conditions expected to become as follows by 1700 UTC 18 August 2019
Winds: from the WSW (240 degrees) at 6 MPH (5 knots; 2.6 m/s)
Visibility: 6 or more miles 10+ km)
Ceiling: unknown
Clouds: missing
Weather: no significant weather forecast for this period

 AIRPORT MAP

 RUNWAY INFORMATION
Runway 05 Runway length 8366 ft Runway width 148 ft
Runway elevation 70 ft Runway displaced threshold 0 ft Runway heading 53
Runway 23 Runway length 8366 ft Runway width 148 ft
Runway elevation 50 ft Runway displaced threshold 525 ft Runway heading 233

 AIRPORT FREQUENCIES
Type APP Name APP Frequency 120.875 MHZ
Type INFO Name INFO Frequency 128.675 MHZ
Type TWR Name TWR Frequency 124.675 MHZ

 AIRPORT NEAR NAVIGATION AIDS
Type NDB Name Drvenik Frequency 418 KHZ
Type VOR-DME Name Split Frequency 115700 KHZ
Type NDB Name Trogir Frequency 378 KHZ



Impressum